Terminal Aerodrome Forecast
Issued by NWS

Home | Current Version | Previous Version | Text Only | Print | Product List | Glossary On
Versions: 1 2 3 4 5 6 7 8 9 10 11 12 13 14 15 16 17 18 19 20
000
FTUS43 KDLH 222019 AAA
TAFHYR
TAF AMD
KHYR 222019Z 2220/2318 03012G19KT P6SM OVC006
     FM222200 04007KT P6SM SCT015 OVC040
     FM231400 08008KT P6SM OVC045=

USA.gov is the U.S. government's official web portal to all federal, state and local government web resources and services.